createdAt,value
2023-01-19T00:00:44.281Z,637.7
2023-01-19T00:01:46.280Z,637.8
2023-01-19T00:02:48.503Z,637.6
2023-01-19T00:03:50.506Z,638
2023-01-19T00:04:52.354Z,638.8
2023-01-19T00:05:54.443Z,638.7
2023-01-19T00:06:56.452Z,641
2023-01-19T00:08:00.074Z,639.3
2023-01-19T00:09:01.997Z,640
2023-01-19T00:10:04.049Z,637.7
2023-01-19T00:11:06.025Z,638.9
2023-01-19T00:12:07.962Z,639
2023-01-19T00:13:09.799Z,638
2023-01-19T00:14:11.758Z,637.1
2023-01-19T00:15:13.723Z,639.8
2023-01-19T00:16:15.888Z,637.7
2023-01-19T00:17:17.820Z,639
2023-01-19T00:18:19.672Z,638.8
2023-01-19T00:19:21.625Z,637.2
2023-01-19T00:20:23.464Z,637.9
2023-01-19T00:21:25.427Z,636.5
2023-01-19T00:22:27.276Z,638.5
2023-01-19T00:23:29.117Z,637.8
2023-01-19T00:24:31.080Z,638.1
2023-01-19T00:25:33.021Z,637
2023-01-19T00:26:35.316Z,638.3
2023-01-19T00:27:37.060Z,637.3
2023-01-19T00:28:38.989Z,637
2023-01-19T00:29:40.846Z,637.8
2023-01-19T00:30:42.693Z,635.9
2023-01-19T00:31:44.896Z,637.6
2023-01-19T00:32:46.789Z,636.7
2023-01-19T00:33:48.642Z,637.4
2023-01-19T00:34:50.491Z,637.4
2023-01-19T00:35:55.297Z,638.5
2023-01-19T00:36:57.060Z,638.6
2023-01-19T00:37:58.829Z,638.9
2023-01-19T00:39:00.682Z,637.4
2023-01-19T00:40:02.609Z,638.4
2023-01-19T00:41:04.572Z,638.4
2023-01-19T00:42:06.441Z,638
2023-01-19T00:43:08.268Z,638
2023-01-19T00:44:10.115Z,638.5
2023-01-19T00:45:11.962Z,637.9
2023-01-19T00:46:14.172Z,637.5
2023-01-19T00:47:15.891Z,638
2023-01-19T00:48:17.724Z,637.9
2023-01-19T00:49:19.567Z,637.7
2023-01-19T00:50:21.454Z,639.3
2023-01-19T00:51:23.275Z,639.3
2023-01-19T00:52:25.013Z,639.9
2023-01-19T00:53:26.969Z,639.9
2023-01-19T00:54:28.824Z,639.6
2023-01-19T00:55:30.672Z,639.5
2023-01-19T00:56:32.522Z,638.9
2023-01-19T00:57:34.601Z,640.7
2023-01-19T00:58:36.430Z,640.6
2023-01-19T00:59:38.279Z,642
2023-01-19T01:00:40.220Z,642.3
2023-01-19T01:01:51.434Z,641.9
2023-01-19T01:02:53.595Z,641
2023-01-19T01:03:55.638Z,642.8
2023-01-19T01:04:57.554Z,642.6
2023-01-19T01:05:59.418Z,642.6
2023-01-19T01:07:01.201Z,643.7
2023-01-19T01:08:03.113Z,642.3
2023-01-19T01:09:05.161Z,643.4
2023-01-19T01:10:07.008Z,644.3
2023-01-19T01:11:08.759Z,643.6
2023-01-19T01:12:10.818Z,643.1
2023-01-19T01:13:28.264Z,644.2
2023-01-19T01:14:30.815Z,643.5
2023-01-19T01:15:32.745Z,644.5
2023-01-19T01:16:35.047Z,642.8
2023-01-19T01:17:36.913Z,644.3
2023-01-19T01:18:38.712Z,646.4
2023-01-19T01:19:40.659Z,644.8
2023-01-19T01:20:42.518Z,644.7
2023-01-19T01:21:44.261Z,644.6
2023-01-19T01:22:46.115Z,644.1
2023-01-19T01:23:47.956Z,645.2
2023-01-19T01:24:49.703Z,644.7
2023-01-19T01:25:51.764Z,643.8
2023-01-19T01:26:53.623Z,645.3
2023-01-19T01:27:55.572Z,644.4
2023-01-19T01:28:57.516Z,645.6
2023-01-19T01:29:59.272Z,645.2
2023-01-19T01:31:01.123Z,645.2
2023-01-19T01:32:02.971Z,645.6
2023-01-19T01:33:04.813Z,644.9
2023-01-19T01:34:06.744Z,646.3
2023-01-19T01:35:08.730Z,645.2
2023-01-19T01:36:10.595Z,646.2
2023-01-19T01:37:12.415Z,645.3
2023-01-19T01:38:14.263Z,644.9
2023-01-19T01:39:16.125Z,645.6
2023-01-19T01:40:18.045Z,644.4
2023-01-19T01:41:26.779Z,644.6
2023-01-19T01:42:28.730Z,644.3
2023-01-19T01:43:30.589Z,645
2023-01-19T01:44:32.465Z,643.7
2023-01-19T01:45:34.957Z,642.9
2023-01-19T01:46:36.815Z,642.6
2023-01-19T01:47:38.607Z,642
2023-01-19T01:48:40.550Z,642.2
2023-01-19T01:49:42.407Z,643.4
2023-01-19T01:50:44.254Z,642.9
2023-01-19T01:51:46.039Z,641.6
2023-01-19T01:53:08.948Z,641.9
2023-01-19T01:54:10.797Z,641
2023-01-19T01:55:12.669Z,641.5
2023-01-19T01:56:14.524Z,641.7
2023-01-19T01:57:16.351Z,642.3
2023-01-19T01:58:18.114Z,642.7
2023-01-19T01:59:19.938Z,641.3
2023-01-19T02:00:21.957Z,642.8
2023-01-19T02:01:24.293Z,642.6
2023-01-19T02:02:27.238Z,643
2023-01-19T02:03:29.311Z,642.9
2023-01-19T02:04:31.241Z,643.1
2023-01-19T02:05:32.887Z,642.3
2023-01-19T02:06:34.742Z,643.1
2023-01-19T02:07:36.580Z,642.5
2023-01-19T02:08:38.530Z,642.6
2023-01-19T02:09:40.313Z,642
2023-01-19T02:10:42.132Z,642.1
2023-01-19T02:11:44.088Z,641.4
2023-01-19T02:12:45.754Z,641.7
2023-01-19T02:13:47.690Z,641.8
2023-01-19T02:14:49.545Z,642.5
2023-01-19T02:15:51.517Z,642.4
2023-01-19T02:16:53.681Z,641.8
2023-01-19T02:17:55.478Z,642.2
2023-01-19T02:18:57.341Z,642.9
2023-01-19T02:19:59.201Z,642.5
2023-01-19T02:21:00.940Z,642.4
2023-01-19T02:22:02.766Z,642.2
2023-01-19T02:23:04.644Z,643
2023-01-19T02:24:06.495Z,644.1
2023-01-19T02:25:08.440Z,642.7
2023-01-19T02:26:10.311Z,644.7
2023-01-19T02:27:12.252Z,643.9
2023-01-19T02:28:14.131Z,644.8
2023-01-19T02:29:15.841Z,645.1
2023-01-19T02:30:17.688Z,645.6
2023-01-19T02:31:19.542Z,645.7
2023-01-19T02:32:21.519Z,646.3
2023-01-19T02:33:23.340Z,644.6
2023-01-19T02:34:25.309Z,644.8
2023-01-19T02:35:27.113Z,645.4
2023-01-19T02:36:29.226Z,644.2
2023-01-19T02:37:31.056Z,643.6
2023-01-19T02:38:32.977Z,642.5
2023-01-19T02:39:34.867Z,645.8
2023-01-19T02:40:36.710Z,644.5
2023-01-19T02:41:38.547Z,644.2
2023-01-19T02:42:40.329Z,645.9
2023-01-19T02:43:42.260Z,645.2
2023-01-19T02:44:44.100Z,645.4
2023-01-19T02:45:46.191Z,644.9
2023-01-19T02:46:48.158Z,644.6
2023-01-19T02:47:49.985Z,644.3
2023-01-19T02:48:51.914Z,643.8
2023-01-19T02:49:53.759Z,644.4
2023-01-19T02:50:55.607Z,644.7
2023-01-19T02:51:57.463Z,644.2
2023-01-19T02:53:00.878Z,644.4
2023-01-19T02:54:06.066Z,644.3
2023-01-19T02:55:07.929Z,643.4
2023-01-19T02:56:09.786Z,644.1
2023-01-19T02:57:11.628Z,642.8
2023-01-19T02:58:13.580Z,643.5
2023-01-19T02:59:15.549Z,643.6
2023-01-19T03:00:17.386Z,644
2023-01-19T03:01:19.854Z,645.1
2023-01-19T03:02:22.659Z,644.5
2023-01-19T03:03:24.580Z,644.8
2023-01-19T03:04:26.420Z,644
2023-01-19T03:05:28.175Z,643.6
2023-01-19T03:06:30.036Z,645.9
2023-01-19T03:07:31.866Z,644.7
2023-01-19T03:08:33.724Z,644
2023-01-19T03:09:35.667Z,645.1
2023-01-19T03:10:37.526Z,644.6
2023-01-19T03:11:39.498Z,644.3
2023-01-19T03:12:41.360Z,644.5
2023-01-19T03:13:43.204Z,645.2
2023-01-19T03:14:45.122Z,644.5
2023-01-19T03:15:47.218Z,645.7
2023-01-19T03:16:49.677Z,645.2
2023-01-19T03:17:51.512Z,644.9
2023-01-19T03:18:53.341Z,646.6
2023-01-19T03:19:55.302Z,645.9
2023-01-19T03:20:57.258Z,645.5
2023-01-19T03:21:59.310Z,645.8
2023-01-19T03:23:03.492Z,645.9
2023-01-19T03:24:05.473Z,646.5
2023-01-19T03:25:07.423Z,645.2
2023-01-19T03:26:09.240Z,645.5
2023-01-19T03:27:11.119Z,644.9
2023-01-19T03:28:12.984Z,645.3
2023-01-19T03:29:14.858Z,645.8
2023-01-19T03:30:16.766Z,645.2
2023-01-19T03:31:18.783Z,644.9
2023-01-19T03:32:20.739Z,645.2
2023-01-19T03:33:22.652Z,645.5
2023-01-19T03:34:24.592Z,645.8
2023-01-19T03:35:26.328Z,645.9
2023-01-19T03:36:28.285Z,645.1
2023-01-19T03:37:30.052Z,645.2
2023-01-19T03:38:31.876Z,644.8
2023-01-19T03:39:33.848Z,645.9
2023-01-19T03:40:35.690Z,645.9
2023-01-19T03:41:37.521Z,645.8
2023-01-19T03:42:39.371Z,648.1
2023-01-19T03:43:41.333Z,646.2
2023-01-19T03:44:43.288Z,646.4
2023-01-19T03:45:45.143Z,646.3
2023-01-19T03:46:46.982Z,646.6
2023-01-19T03:47:48.943Z,647.6
2023-01-19T03:48:50.870Z,645.9
2023-01-19T03:49:52.743Z,646.2
2023-01-19T03:50:54.587Z,645.9
2023-01-19T03:51:56.540Z,645.6
2023-01-19T03:53:00.062Z,645.3
2023-01-19T03:54:02.190Z,645.3
2023-01-19T03:55:04.065Z,645.6
2023-01-19T03:56:05.787Z,645.6
2023-01-19T03:57:07.745Z,647
2023-01-19T03:58:09.529Z,645.5
2023-01-19T03:59:11.406Z,645.2
2023-01-19T04:00:13.388Z,646.7
2023-01-19T04:01:15.792Z,647.5
2023-01-19T04:02:18.144Z,646.4
2023-01-19T04:03:19.916Z,645
2023-01-19T04:04:21.907Z,645.1
2023-01-19T04:05:23.696Z,645
2023-01-19T04:06:25.517Z,645.7
2023-01-19T04:07:27.359Z,644.3
2023-01-19T04:08:29.220Z,643.8
2023-01-19T04:09:30.970Z,644.1
2023-01-19T04:10:32.866Z,644.6
2023-01-19T04:11:34.660Z,644.6
2023-01-19T04:12:36.502Z,643.8
2023-01-19T04:13:38.270Z,643.3
2023-01-19T04:14:40.032Z,643.4
2023-01-19T04:15:42.148Z,643.1
2023-01-19T04:16:44.039Z,643.5
2023-01-19T04:17:45.863Z,643.8
2023-01-19T04:18:47.813Z,643.4
2023-01-19T04:19:49.892Z,643.3
2023-01-19T04:20:51.932Z,644.3
2023-01-19T04:21:53.783Z,642.6
2023-01-19T04:22:55.632Z,642.9
2023-01-19T04:24:00.347Z,642.2
2023-01-19T04:25:02.187Z,642.6
2023-01-19T04:26:04.014Z,642.9
2023-01-19T04:27:05.903Z,643.7
2023-01-19T04:28:07.744Z,643.4
2023-01-19T04:29:09.521Z,643.2
2023-01-19T04:30:14.109Z,643.3
2023-01-19T04:31:16.208Z,642.9
2023-01-19T04:32:18.000Z,643.1
2023-01-19T04:33:19.866Z,643.2
2023-01-19T04:34:21.609Z,643.3
2023-01-19T04:35:23.712Z,642.5
2023-01-19T04:36:25.616Z,641.5
2023-01-19T04:37:27.465Z,642.7
2023-01-19T04:38:29.316Z,641.4
2023-01-19T04:39:31.095Z,640.2
2023-01-19T04:40:32.931Z,640.2
2023-01-19T04:41:34.862Z,640.3
2023-01-19T04:42:36.703Z,641.4
2023-01-19T04:43:38.553Z,640.6
2023-01-19T04:44:40.403Z,641.5
2023-01-19T04:45:45.124Z,641.2
2023-01-19T04:46:47.197Z,640.5
2023-01-19T04:47:48.921Z,640.4
2023-01-19T04:48:50.681Z,640.1
2023-01-19T04:49:52.548Z,640.4
2023-01-19T04:50:54.411Z,640.4
2023-01-19T04:51:56.288Z,639.8
2023-01-19T04:52:59.094Z,639.7
2023-01-19T04:54:01.375Z,640.4
2023-01-19T04:55:03.831Z,639.9
2023-01-19T04:56:05.680Z,639.8
2023-01-19T04:57:07.628Z,640.1
2023-01-19T04:58:09.474Z,639.5
2023-01-19T04:59:11.144Z,639.7
2023-01-19T05:00:13.089Z,639.2
2023-01-19T05:01:15.200Z,639.5
2023-01-19T05:02:17.512Z,638.7
2023-01-19T05:03:19.609Z,639.7
2023-01-19T05:04:21.501Z,638.5
2023-01-19T05:05:23.339Z,639.1
2023-01-19T05:06:25.555Z,637.9
2023-01-19T05:07:27.231Z,639
2023-01-19T05:08:31.759Z,638.7
2023-01-19T05:09:33.519Z,637.9
2023-01-19T05:10:35.464Z,638.1
2023-01-19T05:11:37.309Z,638.2
2023-01-19T05:12:39.011Z,637.2
2023-01-19T05:13:40.807Z,635.8
2023-01-19T05:14:42.664Z,635.9
2023-01-19T05:15:44.786Z,636.7
2023-01-19T05:16:46.665Z,638.2
2023-01-19T05:17:48.531Z,636.6
2023-01-19T05:18:50.364Z,636.6
2023-01-19T05:19:52.211Z,636.9
2023-01-19T05:20:54.071Z,637.9
2023-01-19T05:21:56.039Z,637.5
2023-01-19T05:22:59.424Z,636.6
2023-01-19T05:24:01.469Z,636
2023-01-19T05:25:03.168Z,635.6
2023-01-19T05:26:05.059Z,634.7
2023-01-19T05:27:06.800Z,635.6
2023-01-19T05:28:08.674Z,635
2023-01-19T05:29:10.517Z,633.8
2023-01-19T05:30:12.338Z,635.3
2023-01-19T05:31:14.723Z,634.6
2023-01-19T05:32:16.671Z,634.7
2023-01-19T05:33:18.613Z,634.3
2023-01-19T05:34:20.586Z,634.7
2023-01-19T05:35:36.905Z,634.9
2023-01-19T05:36:38.687Z,634
2023-01-19T05:37:40.583Z,634.4
2023-01-19T05:38:42.407Z,634.1
2023-01-19T05:39:44.369Z,634
2023-01-19T05:40:46.220Z,633.7
2023-01-19T05:41:48.057Z,634.1
2023-01-19T05:42:49.811Z,634.8
2023-01-19T05:43:51.660Z,633.8
2023-01-19T05:44:53.617Z,633.2
2023-01-19T05:45:55.368Z,633.7
2023-01-19T05:46:57.484Z,633
2023-01-19T05:47:59.373Z,632.8
2023-01-19T05:49:01.321Z,633.9
2023-01-19T05:50:03.164Z,633
2023-01-19T05:51:05.084Z,633.4
2023-01-19T05:52:07.055Z,634
2023-01-19T05:53:08.947Z,634
2023-01-19T05:54:10.718Z,634.1
2023-01-19T05:55:12.535Z,633.8
2023-01-19T05:56:14.367Z,633.6
2023-01-19T05:57:16.227Z,633.8
2023-01-19T05:58:18.073Z,633.4
2023-01-19T05:59:19.838Z,633.7
2023-01-19T06:00:21.595Z,633.3
2023-01-19T06:01:23.573Z,633.9
2023-01-19T06:02:25.701Z,632.7
2023-01-19T06:03:27.792Z,632.9
2023-01-19T06:04:29.703Z,632.8
2023-01-19T06:05:31.552Z,631.5
2023-01-19T06:06:33.595Z,630.6
2023-01-19T06:07:35.332Z,631.5
2023-01-19T06:08:37.424Z,631.1
2023-01-19T06:09:39.245Z,630.5
2023-01-19T06:10:41.207Z,630.9
2023-01-19T06:11:43.050Z,630.5
2023-01-19T06:12:45.002Z,631.1
2023-01-19T06:13:46.949Z,631.1
2023-01-19T06:14:48.797Z,631.3
2023-01-19T06:15:50.724Z,631
2023-01-19T06:16:52.489Z,630.7
2023-01-19T06:17:54.347Z,632
2023-01-19T06:18:56.190Z,631.7
2023-01-19T06:19:58.043Z,631.8
2023-01-19T06:20:59.904Z,632.1
2023-01-19T06:22:01.718Z,633.1
2023-01-19T06:23:04.619Z,632.5
2023-01-19T06:24:06.614Z,631.7
2023-01-19T06:25:08.517Z,632.1
2023-01-19T06:26:10.298Z,631.7
2023-01-19T06:27:12.129Z,631.6
2023-01-19T06:28:14.083Z,631.4
2023-01-19T06:29:15.745Z,631.8
2023-01-19T06:30:17.602Z,633
2023-01-19T06:31:19.792Z,632.7
2023-01-19T06:32:21.684Z,634.1
2023-01-19T06:33:26.463Z,633.7
2023-01-19T06:34:28.158Z,632
2023-01-19T06:35:29.992Z,633
2023-01-19T06:36:31.810Z,631.9
2023-01-19T06:37:33.542Z,631.8
2023-01-19T06:38:35.440Z,632
2023-01-19T06:39:37.425Z,632.3
2023-01-19T06:40:39.338Z,632.2
2023-01-19T06:41:41.197Z,631.7
2023-01-19T06:42:43.203Z,631.9
2023-01-19T06:43:45.167Z,632.2
2023-01-19T06:44:46.949Z,630.9
2023-01-19T06:45:49.254Z,631.4
2023-01-19T06:46:51.051Z,631.1
2023-01-19T06:47:52.879Z,630.1
2023-01-19T06:48:54.935Z,630.7
2023-01-19T06:49:56.828Z,630.3
2023-01-19T06:51:00.527Z,629.7
2023-01-19T06:52:02.378Z,630.2
2023-01-19T06:53:04.067Z,629.1
2023-01-19T06:54:06.112Z,628.9
2023-01-19T06:55:07.933Z,629.2
2023-01-19T06:56:10.323Z,629.5
2023-01-19T06:57:12.423Z,629.7
2023-01-19T06:58:14.180Z,628.8
2023-01-19T06:59:15.919Z,628.7
2023-01-19T07:00:17.890Z,628.8
2023-01-19T07:01:20.480Z,628.2
2023-01-19T07:02:30.077Z,628.1
2023-01-19T07:03:32.325Z,628.5
2023-01-19T07:04:34.073Z,627.6
2023-01-19T07:05:35.769Z,628.3
2023-01-19T07:06:38.134Z,628.7
2023-01-19T07:07:40.366Z,629.8
2023-01-19T07:08:42.092Z,628.4
2023-01-19T07:09:43.854Z,628.8
2023-01-19T07:11:33.803Z,627.9
2023-01-19T07:12:36.071Z,628
2023-01-19T07:13:38.033Z,629
2023-01-19T07:14:39.873Z,629.2
2023-01-19T07:15:41.776Z,628.5
2023-01-19T07:16:44.098Z,627.9
2023-01-19T07:17:46.112Z,628.1
2023-01-19T07:18:47.923Z,628.8
2023-01-19T07:19:49.667Z,628.2
2023-01-19T07:20:51.419Z,628.5
2023-01-19T07:21:53.245Z,629.4
2023-01-19T07:22:54.951Z,629.7
2023-01-19T07:23:56.737Z,629.7
2023-01-19T07:24:58.686Z,628.3
2023-01-19T07:26:00.478Z,628.9
2023-01-19T07:27:02.419Z,628.8
2023-01-19T07:28:04.246Z,628.2
2023-01-19T07:29:06.083Z,629.6
2023-01-19T07:30:07.949Z,629.3
2023-01-19T07:31:10.296Z,629.2
2023-01-19T07:32:12.361Z,629.6
2023-01-19T07:33:14.355Z,629.2
2023-01-19T07:34:16.168Z,630.7
2023-01-19T07:35:17.922Z,629.1
2023-01-19T07:36:19.802Z,630
2023-01-19T07:37:21.832Z,630.4
2023-01-19T07:38:23.666Z,630.4
2023-01-19T07:39:25.546Z,630.3
2023-01-19T07:40:27.490Z,630.8
2023-01-19T07:41:29.312Z,631.5
2023-01-19T07:42:31.277Z,630.7
2023-01-19T07:43:33.176Z,630.2
2023-01-19T07:44:34.971Z,629.9
2023-01-19T07:45:37.247Z,630.5
2023-01-19T07:46:39.078Z,630.6
2023-01-19T07:47:40.929Z,630.7
2023-01-19T07:48:42.879Z,629.9
2023-01-19T07:49:44.747Z,629.7
2023-01-19T07:50:46.580Z,630.5
2023-01-19T07:51:48.539Z,629.6
2023-01-19T07:52:50.562Z,629.9
2023-01-19T07:53:52.442Z,629.8
2023-01-19T07:54:54.299Z,631
2023-01-19T07:55:55.987Z,631.2
2023-01-19T07:56:57.890Z,631.6
2023-01-19T07:57:59.750Z,632
2023-01-19T07:59:01.994Z,631.2
2023-01-19T08:00:03.968Z,630.7
2023-01-19T08:01:06.357Z,630.1
2023-01-19T08:02:08.904Z,630.8
2023-01-19T08:03:10.661Z,630.8
2023-01-19T08:04:13.125Z,632.1
2023-01-19T08:05:15.047Z,630.5
2023-01-19T08:06:16.984Z,630.3
2023-01-19T08:07:18.762Z,631.2
2023-01-19T08:08:20.599Z,630.9
2023-01-19T08:09:22.448Z,631.1
2023-01-19T08:10:24.193Z,631.8
2023-01-19T08:11:25.972Z,632.3
2023-01-19T08:12:27.994Z,631.7
2023-01-19T08:13:29.863Z,632.5
2023-01-19T08:14:31.683Z,630.5
2023-01-19T08:15:33.789Z,630.9
2023-01-19T08:16:35.626Z,630.7
2023-01-19T08:17:37.538Z,630.5
2023-01-19T08:18:39.297Z,630
2023-01-19T08:19:42.282Z,630.3
2023-01-19T08:20:44.121Z,631.3
2023-01-19T08:21:45.960Z,630.8
2023-01-19T08:22:47.758Z,628.9
2023-01-19T08:23:49.696Z,631.6
2023-01-19T08:24:51.510Z,630.6
2023-01-19T08:25:53.612Z,631.6
2023-01-19T08:26:55.303Z,630.9
2023-01-19T08:27:57.275Z,630.3
2023-01-19T08:28:59.245Z,629.7
2023-01-19T08:30:01.067Z,630.2
2023-01-19T08:31:25.394Z,628.6
2023-01-19T08:32:27.739Z,632.2
2023-01-19T08:33:29.561Z,631.8
2023-01-19T08:34:31.518Z,631
2023-01-19T08:35:33.264Z,630.6
2023-01-19T08:36:34.974Z,630.8
2023-01-19T08:37:36.791Z,631.5
2023-01-19T08:38:38.624Z,630.7
2023-01-19T08:39:40.474Z,631.5
2023-01-19T08:40:42.521Z,630.2
2023-01-19T08:41:44.359Z,630
2023-01-19T08:42:46.435Z,629.3
2023-01-19T08:43:48.265Z,630.9
2023-01-19T08:44:59.137Z,630.3
2023-01-19T08:46:01.268Z,630.4
2023-01-19T08:47:03.700Z,629.1
2023-01-19T08:48:05.606Z,630.3
2023-01-19T08:49:07.561Z,628.6
2023-01-19T08:50:09.367Z,630.8
2023-01-19T08:51:11.334Z,630
2023-01-19T08:52:13.300Z,630.2
2023-01-19T08:53:15.057Z,629.7
2023-01-19T08:54:19.258Z,632.2
2023-01-19T08:55:21.017Z,632.5
2023-01-19T08:56:22.853Z,631.2
2023-01-19T08:57:24.713Z,631.7
2023-01-19T08:58:26.663Z,631.4
2023-01-19T08:59:28.518Z,629.6
2023-01-19T09:00:30.682Z,631
2023-01-19T09:01:33.105Z,631.6
2023-01-19T09:02:35.650Z,630.9
2023-01-19T09:03:37.656Z,631.8
2023-01-19T09:04:39.512Z,632.3
2023-01-19T09:05:41.263Z,632.4
2023-01-19T09:06:43.127Z,632.4
2023-01-19T09:07:44.924Z,633.3
2023-01-19T09:08:46.903Z,633.4
2023-01-19T09:09:48.849Z,633.4
2023-01-19T09:10:51.015Z,634.5
2023-01-19T09:11:52.861Z,632.9
2023-01-19T09:12:54.617Z,634.2
2023-01-19T09:13:56.450Z,635.4
2023-01-19T09:14:58.451Z,635
2023-01-19T09:16:00.722Z,635.1
2023-01-19T09:17:02.625Z,636.2
2023-01-19T09:18:07.537Z,634.6
2023-01-19T09:19:09.608Z,636.8
2023-01-19T09:20:11.543Z,637.4
2023-01-19T09:21:13.643Z,635.7
2023-01-19T09:22:15.553Z,636.6
2023-01-19T09:23:17.424Z,636.3
2023-01-19T09:24:19.361Z,636.7
2023-01-19T09:25:21.315Z,636.2
2023-01-19T09:26:23.259Z,636.2
2023-01-19T09:27:25.039Z,636.9
2023-01-19T09:28:26.865Z,635.9
2023-01-19T09:29:28.614Z,636.2
2023-01-19T09:30:31.197Z,636.4
2023-01-19T09:31:33.397Z,636.8
2023-01-19T09:32:35.290Z,637.3
2023-01-19T09:33:37.138Z,637.4
2023-01-19T09:34:38.936Z,635.7
2023-01-19T09:35:40.668Z,637.4
2023-01-19T09:36:42.272Z,635.8
2023-01-19T09:37:44.100Z,636.9
2023-01-19T09:38:45.876Z,637.3
2023-01-19T09:39:47.934Z,638
2023-01-19T09:40:49.936Z,638.5
2023-01-19T09:41:51.623Z,637.6
2023-01-19T09:42:53.479Z,636.9
2023-01-19T09:43:55.327Z,637.5
2023-01-19T09:44:57.191Z,637.2
2023-01-19T09:45:59.138Z,637.5
2023-01-19T09:47:00.969Z,638
2023-01-19T09:48:03.919Z,637.5
2023-01-19T09:49:05.904Z,637.3
2023-01-19T09:50:07.871Z,638.9
2023-01-19T09:51:09.714Z,637.9
2023-01-19T09:52:11.479Z,637.2
2023-01-19T09:53:13.235Z,637.4
2023-01-19T09:54:15.162Z,637.5
2023-01-19T09:55:17.116Z,636.9
2023-01-19T09:56:18.968Z,637.2
2023-01-19T09:57:20.805Z,637.2
2023-01-19T09:58:22.675Z,637.1
2023-01-19T09:59:24.434Z,637
2023-01-19T10:00:26.394Z,636.7
2023-01-19T10:01:28.861Z,638
2023-01-19T10:02:30.820Z,637.7
2023-01-19T10:03:32.563Z,637.6
2023-01-19T10:04:34.367Z,638.8
2023-01-19T10:05:36.261Z,637.8
2023-01-19T10:06:38.383Z,639.9
2023-01-19T10:07:40.136Z,638.3
2023-01-19T10:08:41.986Z,639.1
2023-01-19T10:09:43.802Z,639.3
2023-01-19T10:10:45.678Z,639.6
2023-01-19T10:11:54.107Z,639.9
2023-01-19T10:12:55.948Z,640.1
2023-01-19T10:13:57.965Z,639.3
2023-01-19T10:14:59.851Z,640
2023-01-19T10:16:01.831Z,638.9
2023-01-19T10:17:04.062Z,637.6
2023-01-19T10:18:05.932Z,638.1
2023-01-19T10:19:07.767Z,638.7
2023-01-19T10:20:09.820Z,638.4
2023-01-19T10:21:12.187Z,639.9
2023-01-19T10:22:14.181Z,638.4
2023-01-19T10:23:16.080Z,638.7
2023-01-19T10:24:17.962Z,639.2
2023-01-19T10:25:20.286Z,638.4
2023-01-19T10:26:22.223Z,639.2
2023-01-19T10:27:24.133Z,638.9
2023-01-19T10:28:26.054Z,639.9
2023-01-19T10:29:27.898Z,640.3
2023-01-19T10:30:30.078Z,640.9
2023-01-19T10:31:33.141Z,641.2
2023-01-19T10:32:35.291Z,640.6
2023-01-19T10:33:37.169Z,640
2023-01-19T10:34:39.611Z,638.1
2023-01-19T10:35:41.467Z,639.6
2023-01-19T10:36:43.313Z,639.6
2023-01-19T10:37:45.297Z,639.8
2023-01-19T10:38:47.768Z,639.4
2023-01-19T10:39:50.267Z,639.5
2023-01-19T10:40:52.486Z,639.7
2023-01-19T10:41:54.548Z,639.3
2023-01-19T10:42:57.294Z,639.4
2023-01-19T10:43:59.229Z,639.7
2023-01-19T10:45:01.198Z,639.2
2023-01-19T10:46:03.368Z,639.7
2023-01-19T10:47:05.845Z,640.2
2023-01-19T10:48:08.257Z,641.2
2023-01-19T10:49:10.136Z,640.3
2023-01-19T10:50:12.240Z,639.1
2023-01-19T10:51:14.220Z,640
2023-01-19T10:52:19.452Z,641.4
2023-01-19T10:53:21.304Z,639.9
2023-01-19T10:54:23.220Z,640
2023-01-19T10:55:25.317Z,640.1
2023-01-19T10:56:27.288Z,639.6
2023-01-19T10:57:29.163Z,639.4
2023-01-19T10:58:31.273Z,639.6
2023-01-19T10:59:33.177Z,638.8
2023-01-19T11:00:34.986Z,639.6
2023-01-19T11:01:38.338Z,637.6
2023-01-19T11:02:40.678Z,638.7
2023-01-19T11:03:42.545Z,638.9
2023-01-19T11:04:44.659Z,639.8
2023-01-19T11:05:46.535Z,640.1
2023-01-19T11:06:48.420Z,639.4
2023-01-19T11:07:50.368Z,640.6
2023-01-19T11:08:52.211Z,640.1
2023-01-19T11:09:54.088Z,639.5
2023-01-19T11:10:55.823Z,640.2
2023-01-19T11:11:57.659Z,640.5
2023-01-19T11:13:01.645Z,641
2023-01-19T11:14:03.747Z,641.3
2023-01-19T11:15:05.481Z,642.2
2023-01-19T11:16:07.743Z,640.9
2023-01-19T11:17:09.704Z,641.5
2023-01-19T11:18:11.530Z,641
2023-01-19T11:19:13.387Z,641.7
2023-01-19T11:20:15.365Z,642.5
2023-01-19T11:21:17.076Z,641.3
2023-01-19T11:22:19.173Z,642
2023-01-19T11:23:20.907Z,643.2
2023-01-19T11:24:22.742Z,642.5
2023-01-19T11:25:24.682Z,642.1
2023-01-19T11:26:26.557Z,643
2023-01-19T11:27:28.490Z,642.9
2023-01-19T11:28:30.241Z,643.6
2023-01-19T11:29:32.007Z,642.8
2023-01-19T11:30:33.929Z,642.6
2023-01-19T11:31:36.037Z,642.2
2023-01-19T11:32:37.896Z,643.4
2023-01-19T11:33:39.822Z,643.3
2023-01-19T11:34:41.744Z,644.3
2023-01-19T11:35:43.648Z,643.5
2023-01-19T11:36:45.449Z,643.3
2023-01-19T11:37:47.408Z,644.8
2023-01-19T11:38:49.248Z,644.5
2023-01-19T11:39:50.979Z,644.6
2023-01-19T11:40:52.947Z,644.1
2023-01-19T11:41:54.774Z,644.4
2023-01-19T11:42:56.634Z,644.2
2023-01-19T11:43:58.408Z,643.7
2023-01-19T11:45:00.126Z,644
2023-01-19T11:46:02.160Z,642.9
2023-01-19T11:47:04.054Z,643.8
2023-01-19T11:48:05.772Z,643.2
2023-01-19T11:49:07.714Z,643.4
2023-01-19T11:50:09.797Z,643.3
2023-01-19T11:51:11.725Z,643.1
2023-01-19T11:52:13.740Z,643.6
2023-01-19T11:53:15.439Z,642.3
2023-01-19T11:54:17.416Z,643.4
2023-01-19T11:55:19.892Z,643.3
2023-01-19T11:56:21.831Z,643.5
2023-01-19T11:57:23.684Z,644
2023-01-19T11:58:25.528Z,644.6
2023-01-19T11:59:27.333Z,643.3
2023-01-19T12:00:29.199Z,643.7
2023-01-19T12:01:31.174Z,643.1
2023-01-19T12:02:33.280Z,643.8
2023-01-19T12:03:35.661Z,643.8
2023-01-19T12:04:37.478Z,643.5
2023-01-19T12:05:39.303Z,644.2
2023-01-19T12:06:41.200Z,644.1
2023-01-19T12:07:42.975Z,643.4
2023-01-19T12:08:44.860Z,644.2
2023-01-19T12:09:46.704Z,644
2023-01-19T12:10:48.548Z,644.3
2023-01-19T12:11:50.292Z,644.2
2023-01-19T12:12:52.456Z,643.8
2023-01-19T12:13:54.511Z,645.1
2023-01-19T12:14:56.330Z,645
2023-01-19T12:15:58.419Z,645.1
2023-01-19T12:17:00.293Z,645.3
2023-01-19T12:18:04.272Z,645.4
2023-01-19T12:19:06.223Z,645.1
2023-01-19T12:20:08.220Z,644.5
2023-01-19T12:21:10.211Z,645.5
2023-01-19T12:22:12.307Z,645.7
2023-01-19T12:23:14.125Z,646.2
2023-01-19T12:24:16.345Z,646
2023-01-19T12:25:18.037Z,646
2023-01-19T12:26:19.692Z,646.2
2023-01-19T12:27:21.535Z,645.5
2023-01-19T12:28:23.273Z,645.8
2023-01-19T12:29:25.062Z,645.9
2023-01-19T12:30:26.873Z,644.6
2023-01-19T12:31:29.353Z,644.3
2023-01-19T12:32:31.393Z,643.7
2023-01-19T12:33:33.767Z,643.2
2023-01-19T12:34:35.612Z,642.9
2023-01-19T12:35:37.423Z,644.9
2023-01-19T12:36:39.403Z,644
2023-01-19T12:37:41.391Z,643.2
2023-01-19T12:38:43.219Z,643.3
2023-01-19T12:39:44.933Z,643
2023-01-19T12:40:46.715Z,643.2
2023-01-19T12:41:48.872Z,644.4
2023-01-19T12:42:50.705Z,642.4
2023-01-19T12:43:52.491Z,642
2023-01-19T12:44:54.313Z,642.3
2023-01-19T12:45:56.351Z,642.2
2023-01-19T12:46:58.324Z,642.9
2023-01-19T12:48:00.170Z,642.3
2023-01-19T12:49:02.046Z,643
2023-01-19T12:50:03.959Z,643.1
2023-01-19T12:51:05.808Z,643.3
2023-01-19T12:52:07.607Z,643.6
2023-01-19T12:53:09.438Z,643
2023-01-19T12:54:11.164Z,642.7
2023-01-19T12:55:13.032Z,642.7
2023-01-19T12:56:14.972Z,643.1
2023-01-19T12:57:16.685Z,642.8
2023-01-19T12:58:18.567Z,642.2
2023-01-19T12:59:20.419Z,642.1
2023-01-19T13:00:22.404Z,642.8
2023-01-19T13:01:24.588Z,643.1
2023-01-19T13:02:26.618Z,642.1
2023-01-19T13:03:28.449Z,642.5
2023-01-19T13:04:30.206Z,641.8
2023-01-19T13:05:33.991Z,642.3
2023-01-19T13:06:35.818Z,641.9
2023-01-19T13:07:37.773Z,641.6
2023-01-19T13:08:39.729Z,640.7
2023-01-19T13:09:41.664Z,640.1
2023-01-19T13:10:43.674Z,640.1
2023-01-19T13:12:01.386Z,640.1
2023-01-19T13:13:03.302Z,640
2023-01-19T13:14:05.068Z,639.4
2023-01-19T13:15:06.998Z,639.3
2023-01-19T13:16:09.138Z,639.5
2023-01-19T13:17:11.015Z,638.8
2023-01-19T13:18:12.860Z,639.5
2023-01-19T13:19:14.704Z,639.1
2023-01-19T13:20:16.567Z,638.7
2023-01-19T13:21:18.229Z,638.5
2023-01-19T13:22:20.071Z,638
2023-01-19T13:23:23.740Z,639
2023-01-19T13:24:26.825Z,638.5
2023-01-19T13:25:28.685Z,639.7
2023-01-19T13:26:30.843Z,638.7